createdAt,value
2018-10-12T00:00:23.652Z,25.40
2018-10-12T00:02:52.208Z,25.57
2018-10-12T00:05:20.793Z,26.17
2018-10-12T00:07:49.346Z,26.77
2018-10-12T00:10:17.932Z,26.07
2018-10-12T00:12:46.476Z,26.63
2018-10-12T00:15:15.085Z,27.53
2018-10-12T00:17:43.643Z,25.13
2018-10-12T00:20:12.224Z,26.33
2018-10-12T00:22:40.802Z,24.23
2018-10-12T00:25:09.375Z,23.63
2018-10-12T00:27:37.911Z,23.10
2018-10-12T00:30:06.530Z,24.27
2018-10-12T00:32:35.113Z,23.73
2018-10-12T00:35:04.027Z,23.00
2018-10-12T00:37:32.640Z,23.03
2018-10-12T00:40:01.308Z,21.97
2018-10-12T00:42:29.895Z,21.57
2018-10-12T00:44:58.504Z,22.37
2018-10-12T00:47:27.071Z,22.50
2018-10-12T00:49:55.729Z,23.50
2018-10-12T00:52:24.288Z,21.80
2018-10-12T00:54:52.849Z,23.13
2018-10-12T00:57:21.450Z,23.30
2018-10-12T00:59:50.047Z,23.37
2018-10-12T01:02:18.619Z,22.47
2018-10-12T01:04:47.159Z,21.80
2018-10-12T01:07:15.753Z,20.97
2018-10-12T01:09:44.364Z,19.87
2018-10-12T01:12:24.330Z,21.60
2018-10-12T01:14:52.910Z,21.53
2018-10-12T01:17:21.506Z,22.03
2018-10-12T01:19:50.081Z,21.63
2018-10-12T01:22:18.683Z,21.73
2018-10-12T01:24:47.290Z,22.53
2018-10-12T01:27:15.874Z,21.10
2018-10-12T01:29:44.467Z,21.13
2018-10-12T01:32:18.127Z,20.27
2018-10-12T01:34:46.655Z,20.30
2018-10-12T01:37:15.508Z,20.67
2018-10-12T01:39:44.076Z,16.20
2018-10-12T01:42:13.156Z,15.23
2018-10-12T01:44:41.744Z,14.87
2018-10-12T01:47:10.426Z,15.57
2018-10-12T01:49:39.360Z,15.10
2018-10-12T01:52:09.162Z,15.27
2018-10-12T01:54:37.732Z,16.43
2018-10-12T01:57:06.881Z,16.53
2018-10-12T01:59:35.458Z,16.30
2018-10-12T02:02:04.162Z,16.33
2018-10-12T02:04:32.919Z,16.53
2018-10-12T02:07:01.965Z,15.80
2018-10-12T02:09:30.519Z,16.27
2018-10-12T02:11:59.296Z,16.17
2018-10-12T02:14:28.263Z,15.50
2018-10-12T02:16:56.846Z,16.90
2018-10-12T02:19:25.531Z,16.20
2018-10-12T02:21:54.121Z,16.30
2018-10-12T02:24:22.715Z,15.23
2018-10-12T02:26:51.327Z,15.80
2018-10-12T02:29:19.887Z,15.63
2018-10-12T02:31:48.440Z,18.77
2018-10-12T02:34:17.060Z,18.70
2018-10-12T02:36:45.605Z,17.80
2018-10-12T02:39:15.438Z,16.27
2018-10-12T02:41:43.970Z,17.10
2018-10-12T02:44:12.872Z,16.17
2018-10-12T02:46:41.484Z,16.00
2018-10-12T02:49:10.091Z,15.57
2018-10-12T02:51:38.653Z,15.73
2018-10-12T02:54:07.261Z,16.00
2018-10-12T02:56:35.833Z,16.77
2018-10-12T02:59:04.435Z,16.40
2018-10-12T03:01:32.991Z,16.87
2018-10-12T03:04:01.584Z,15.97
2018-10-12T03:06:30.151Z,17.37
2018-10-12T03:08:58.741Z,16.63
2018-10-12T03:11:27.315Z,15.97
2018-10-12T03:13:55.879Z,16.67
2018-10-12T03:16:24.442Z,16.70
2018-10-12T03:18:53.012Z,15.93
2018-10-12T03:21:21.558Z,16.13
2018-10-12T03:23:50.125Z,16.80
2018-10-12T03:26:18.711Z,16.80
2018-10-12T03:28:47.300Z,15.97
2018-10-12T03:31:15.996Z,14.63
2018-10-12T03:33:44.630Z,14.43
2018-10-12T03:36:13.265Z,14.03
2018-10-12T03:38:41.952Z,14.23
2018-10-12T03:41:10.531Z,15.50
2018-10-12T03:43:39.159Z,15.70
2018-10-12T03:46:07.831Z,16.40
2018-10-12T03:48:36.426Z,15.30
2018-10-12T03:51:05.013Z,14.97
2018-10-12T03:53:33.607Z,16.17
2018-10-12T03:56:02.188Z,14.67
2018-10-12T03:58:30.781Z,13.97
2018-10-12T04:00:59.351Z,13.70
2018-10-12T04:03:27.928Z,13.17
2018-10-12T04:05:56.461Z,12.00
2018-10-12T04:08:25.035Z,12.07
2018-10-12T04:10:53.576Z,12.97
2018-10-12T04:13:22.149Z,12.77
2018-10-12T04:15:50.679Z,12.90
2018-10-12T04:18:19.362Z,12.80
2018-10-12T04:20:47.933Z,13.17
2018-10-12T04:23:16.521Z,12.87
2018-10-12T04:25:45.157Z,12.90
2018-10-12T04:28:13.844Z,14.27
2018-10-12T04:30:42.442Z,14.33
2018-10-12T04:33:11.082Z,15.27
2018-10-12T04:35:39.644Z,15.10
2018-10-12T04:38:08.224Z,14.97
2018-10-12T04:41:14.225Z,15.80
2018-10-12T04:43:43.304Z,17.00
2018-10-12T04:46:14.532Z,15.63
2018-10-12T04:48:44.556Z,17.30
2018-10-12T04:51:31.932Z,17.37
2018-10-12T04:54:00.715Z,26.70
2018-10-12T04:56:29.324Z,17.80
2018-10-12T04:58:57.969Z,16.60
2018-10-12T05:01:26.559Z,17.20
2018-10-12T05:03:55.188Z,17.90
2018-10-12T05:06:23.797Z,17.33
2018-10-12T05:08:52.374Z,18.70
2018-10-12T05:11:20.955Z,17.73
2018-10-12T05:13:49.561Z,17.47
2018-10-12T05:16:18.558Z,16.97
2018-10-12T05:18:47.095Z,18.23
2018-10-12T05:21:15.658Z,17.93
2018-10-12T05:23:44.203Z,18.73
2018-10-12T05:26:13.143Z,17.93
2018-10-12T05:28:41.744Z,16.30
2018-10-12T05:31:10.361Z,16.87
2018-10-12T05:33:39.099Z,16.33
2018-10-12T05:36:07.845Z,16.33
2018-10-12T05:38:36.417Z,16.20
2018-10-12T05:41:05.031Z,15.40
2018-10-12T05:43:33.744Z,15.57
2018-10-12T05:46:02.303Z,15.30
2018-10-12T05:48:42.290Z,15.07
2018-10-12T05:51:12.103Z,14.10
2018-10-12T05:53:40.749Z,13.53
2018-10-12T05:56:09.420Z,13.67
2018-10-12T05:58:38.778Z,13.50
2018-10-12T06:01:07.713Z,13.43
2018-10-12T06:03:36.322Z,14.77
2018-10-12T06:06:04.913Z,13.90
2018-10-12T06:08:33.868Z,12.47
2018-10-12T06:11:02.450Z,11.60
2018-10-12T06:13:30.997Z,11.57
2018-10-12T06:15:59.669Z,10.50
2018-10-12T06:18:28.217Z,13.20
2018-10-12T06:20:56.764Z,11.40
2018-10-12T06:23:25.349Z,11.30
2018-10-12T06:25:53.935Z,10.87
2018-10-12T06:28:22.497Z,10.70
2018-10-12T06:30:51.067Z,11.50
2018-10-12T06:33:19.623Z,11.43
2018-10-12T06:35:48.208Z,11.47
2018-10-12T06:38:16.763Z,11.50
2018-10-12T06:40:45.336Z,12.50
2018-10-12T06:43:14.104Z,11.73
2018-10-12T06:45:42.723Z,12.30
2018-10-12T06:48:11.320Z,11.90
2018-10-12T06:50:40.936Z,12.47
2018-10-12T06:53:09.620Z,13.20
2018-10-12T06:55:38.262Z,13.77
2018-10-12T06:58:07.301Z,13.97
2018-10-12T07:00:35.957Z,14.97
2018-10-12T07:03:04.654Z,14.87
2018-10-12T07:05:33.336Z,15.07
2018-10-12T07:08:05.136Z,15.37
2018-10-12T07:10:33.707Z,15.10
2018-10-12T07:13:02.501Z,15.77
2018-10-12T07:15:31.075Z,15.37
2018-10-12T07:17:59.661Z,14.17
2018-10-12T07:20:28.224Z,14.90
2018-10-12T07:22:56.789Z,15.03
2018-10-12T07:25:25.320Z,15.17
2018-10-12T07:27:53.966Z,14.27
2018-10-12T07:30:22.552Z,14.43
2018-10-12T07:32:51.120Z,14.73
2018-10-12T07:35:19.716Z,14.47
2018-10-12T07:37:48.447Z,14.90
2018-10-12T07:40:16.965Z,14.10
2018-10-12T07:42:45.532Z,15.17
2018-10-12T07:45:14.095Z,14.30
2018-10-12T07:47:42.733Z,14.40
2018-10-12T07:50:11.385Z,13.67
2018-10-12T07:52:39.941Z,13.90
2018-10-12T07:55:08.563Z,12.63
2018-10-12T07:57:37.159Z,13.80
2018-10-12T08:00:06.266Z,13.80
2018-10-12T08:02:34.759Z,14.10
2018-10-12T08:05:03.653Z,12.67
2018-10-12T08:07:32.257Z,14.20
2018-10-12T08:10:00.876Z,13.30
2018-10-12T08:12:29.451Z,13.30
2018-10-12T08:14:58.005Z,11.77
2018-10-12T08:17:26.603Z,12.63
2018-10-12T08:19:55.248Z,13.17
2018-10-12T08:22:23.944Z,12.67
2018-10-12T08:24:52.526Z,12.13
2018-10-12T08:27:21.472Z,11.17
2018-10-12T08:29:50.028Z,11.87
2018-10-12T08:32:18.676Z,11.17
2018-10-12T08:34:47.237Z,11.30
2018-10-12T08:37:17.935Z,11.57
2018-10-12T08:39:46.923Z,11.43
2018-10-12T08:42:15.557Z,11.23
2018-10-12T08:44:44.152Z,10.60
2018-10-12T08:47:12.749Z,10.00
2018-10-12T08:49:41.294Z,10.57
2018-10-12T08:52:09.876Z,10.73
2018-10-12T08:54:38.509Z,9.60
2018-10-12T08:57:07.128Z,10.60
2018-10-12T08:59:35.654Z,8.93
2018-10-12T09:02:04.287Z,10.13
2018-10-12T09:04:32.808Z,9.63
2018-10-12T09:07:01.428Z,10.43
2018-10-12T09:09:30.028Z,8.70
2018-10-12T09:11:58.571Z,8.57
2018-10-12T09:14:27.183Z,7.93
2018-10-12T09:16:55.751Z,8.93
2018-10-12T09:19:24.366Z,8.30
2018-10-12T09:21:53.014Z,8.97
2018-10-12T09:24:21.568Z,7.90
2018-10-12T09:26:50.164Z,7.83
2018-10-12T09:29:18.732Z,8.87
2018-10-12T09:31:47.322Z,8.80
2018-10-12T09:34:15.900Z,8.77
2018-10-12T09:36:44.730Z,8.10
2018-10-12T09:39:13.282Z,8.60
2018-10-12T09:41:41.872Z,9.00
2018-10-12T09:44:10.779Z,8.17
2018-10-12T09:46:39.316Z,7.90
2018-10-12T09:49:08.481Z,7.93
2018-10-12T09:51:37.362Z,7.77
2018-10-12T09:54:05.976Z,8.27
2018-10-12T09:56:34.524Z,8.97
2018-10-12T09:59:03.086Z,8.77
2018-10-12T10:01:37.001Z,8.83
2018-10-12T10:04:10.972Z,9.50
2018-10-12T10:06:39.505Z,8.60
2018-10-12T10:09:08.133Z,9.40
2018-10-12T10:11:36.713Z,8.73
2018-10-12T10:14:05.259Z,9.63
2018-10-12T10:16:33.811Z,8.77
2018-10-12T10:19:02.681Z,7.73
2018-10-12T10:21:31.224Z,8.30
2018-10-12T10:23:59.787Z,8.73
2018-10-12T10:26:28.405Z,8.20
2018-10-12T10:28:56.936Z,8.13
2018-10-12T10:31:25.472Z,8.27
2018-10-12T10:33:54.045Z,7.90
2018-10-12T10:36:22.563Z,7.37
2018-10-12T10:38:51.162Z,6.90
2018-10-12T10:41:19.808Z,7.17
2018-10-12T10:43:48.690Z,7.07
2018-10-12T10:46:17.293Z,5.92
2018-10-12T10:48:45.868Z,6.47
2018-10-12T10:51:14.737Z,6.15
2018-10-12T10:53:43.369Z,6.23
2018-10-12T10:56:11.862Z,5.85
2018-10-12T10:58:40.431Z,5.47
2018-10-12T11:01:09.067Z,5.75
2018-10-12T11:03:37.624Z,6.00
2018-10-12T11:06:06.565Z,5.30
2018-10-12T11:08:35.100Z,5.57
2018-10-12T11:11:03.689Z,5.90
2018-10-12T11:13:32.262Z,5.78
2018-10-12T11:16:00.789Z,5.50
2018-10-12T11:18:29.341Z,6.03
2018-10-12T11:20:57.875Z,4.90
2018-10-12T11:23:26.441Z,5.92
2018-10-12T11:25:55.068Z,4.60
2018-10-12T11:28:23.749Z,5.22
2018-10-12T11:30:52.400Z,5.10
2018-10-12T11:33:20.981Z,4.75
2018-10-12T11:35:49.540Z,4.70
2018-10-12T11:38:18.080Z,4.25
2018-10-12T11:40:46.682Z,4.50
2018-10-12T11:43:28.888Z,4.47
2018-10-12T11:45:58.053Z,3.90
2018-10-12T11:48:26.642Z,3.60
2018-10-12T11:50:55.234Z,3.70
2018-10-12T11:53:24.552Z,3.48
2018-10-12T11:55:53.152Z,3.30
2018-10-12T11:58:21.720Z,2.27
2018-10-12T12:00:50.323Z,2.40
2018-10-12T12:03:18.910Z,2.40
2018-10-12T12:05:47.472Z,2.05
2018-10-12T12:08:16.020Z,2.58
2018-10-12T12:10:44.572Z,2.20
2018-10-12T12:13:13.111Z,2.40
2018-10-12T12:15:41.661Z,2.30
2018-10-12T12:18:10.221Z,2.37
2018-10-12T12:20:39.156Z,2.43
2018-10-12T12:23:07.695Z,2.37
2018-10-12T12:25:36.253Z,2.22
2018-10-12T12:28:04.808Z,2.50
2018-10-12T12:30:33.352Z,2.40
2018-10-12T12:33:01.916Z,2.50
2018-10-12T12:35:30.818Z,2.52
2018-10-12T12:37:59.046Z,2.40
2018-10-12T12:40:27.618Z,2.58
2018-10-12T12:42:56.211Z,2.40
2018-10-12T12:45:24.935Z,2.00
2018-10-12T12:47:53.648Z,2.17
2018-10-12T12:50:22.096Z,2.33
2018-10-12T12:52:50.642Z,2.47
2018-10-12T12:55:19.257Z,2.35
2018-10-12T12:57:47.824Z,2.70
2018-10-12T13:00:17.410Z,2.50
2018-10-12T13:02:45.999Z,2.58
2018-10-12T13:05:14.636Z,2.50
2018-10-12T13:07:43.181Z,2.40
2018-10-12T13:10:11.786Z,2.62
2018-10-12T13:12:40.325Z,2.42
2018-10-12T13:15:08.917Z,2.47
2018-10-12T13:17:37.495Z,2.20
2018-10-12T13:20:06.164Z,2.10
2018-10-12T13:22:34.774Z,2.10
2018-10-12T13:25:03.335Z,2.30
2018-10-12T13:27:31.989Z,2.40
2018-10-12T13:30:00.550Z,2.40
2018-10-12T13:32:29.846Z,2.47
2018-10-12T13:34:58.374Z,2.45
2018-10-12T13:37:27.062Z,2.30
2018-10-12T13:39:55.648Z,2.40
2018-10-12T13:42:24.199Z,2.35
2018-10-12T13:44:52.779Z,2.20
2018-10-12T13:47:21.359Z,2.20
2018-10-12T13:49:49.900Z,2.40
2018-10-12T13:52:18.471Z,2.67
2018-10-12T13:54:47.054Z,2.58
2018-10-12T13:57:15.648Z,2.50
2018-10-12T13:59:44.272Z,2.70
2018-10-12T14:02:12.861Z,2.65
2018-10-12T14:04:41.463Z,2.47
2018-10-12T14:07:10.048Z,2.77
2018-10-12T14:09:38.671Z,2.75
2018-10-12T14:12:07.682Z,2.83
2018-10-12T14:14:36.266Z,2.90
2018-10-12T14:17:04.841Z,2.72
2018-10-12T14:19:33.537Z,2.60
2018-10-12T14:22:02.010Z,2.72
2018-10-12T14:24:30.575Z,2.50
2018-10-12T14:26:59.148Z,2.72
2018-10-12T14:29:27.722Z,2.37
2018-10-12T14:31:56.295Z,2.52
2018-10-12T14:34:24.835Z,2.62
2018-10-12T14:36:53.519Z,2.45
2018-10-12T14:39:22.418Z,2.60
2018-10-12T14:41:51.010Z,2.70
2018-10-12T14:44:19.770Z,2.65
2018-10-12T14:46:48.380Z,2.75
2018-10-12T14:49:18.120Z,2.33
2018-10-12T14:51:47.749Z,2.40
2018-10-12T14:54:17.321Z,2.20
2018-10-12T14:56:47.343Z,2.20
2018-10-12T14:59:16.711Z,2.15
2018-10-12T15:01:48.507Z,2.37
2018-10-12T15:04:18.488Z,2.12
2018-10-12T15:06:49.851Z,2.20
2018-10-12T15:09:21.026Z,2.00
2018-10-12T15:11:49.697Z,2.30
2018-10-12T15:14:22.740Z,2.17
2018-10-12T15:16:51.323Z,2.42
2018-10-12T15:19:19.944Z,2.70
2018-10-12T15:21:48.644Z,2.05
2018-10-12T15:24:17.196Z,2.20
2018-10-12T15:26:45.783Z,2.17
2018-10-12T15:29:14.318Z,2.40
2018-10-12T15:31:42.880Z,2.58
2018-10-12T15:34:11.437Z,2.35
2018-10-12T15:36:40.028Z,2.40
2018-10-12T15:39:08.693Z,2.10
2018-10-12T15:41:37.400Z,2.50
2018-10-12T15:44:05.948Z,2.27
2018-10-12T15:46:34.474Z,2.40
2018-10-12T15:49:03.181Z,2.30
2018-10-12T15:51:31.824Z,2.45
2018-10-12T15:54:03.046Z,2.45
2018-10-12T15:56:34.190Z,2.50
2018-10-12T15:59:04.028Z,2.75
2018-10-12T16:01:33.680Z,2.55
2018-10-12T16:04:04.343Z,3.20
2018-10-12T16:06:34.226Z,4.70
2018-10-12T16:09:04.512Z,3.97
2018-10-12T16:11:34.080Z,3.30
2018-10-12T16:14:03.868Z,3.73
2018-10-12T16:16:33.396Z,3.97
2018-10-12T16:19:02.908Z,3.50
2018-10-12T16:21:32.527Z,4.33
2018-10-12T16:24:12.484Z,4.57
2018-10-12T16:26:41.760Z,3.87
2018-10-12T16:29:11.427Z,7.60
2018-10-12T16:31:40.929Z,9.70
2018-10-12T16:34:09.559Z,10.90
2018-10-12T16:36:39.337Z,4.50
2018-10-12T16:39:09.816Z,3.77
2018-10-12T16:41:39.900Z,4.40
2018-10-12T16:44:09.705Z,4.63
2018-10-12T16:46:39.089Z,4.83
2018-10-12T16:49:08.660Z,4.17
2018-10-12T16:51:38.601Z,4.50
2018-10-12T16:54:15.620Z,4.00
2018-10-12T16:56:45.419Z,4.27
2018-10-12T16:59:15.081Z,4.63
2018-10-12T17:01:59.663Z,4.77
2018-10-12T17:04:28.311Z,5.30
2018-10-12T17:06:56.855Z,5.77
2018-10-12T17:09:25.415Z,5.77
2018-10-12T17:11:53.966Z,5.60
2018-10-12T17:14:22.550Z,5.30
2018-10-12T17:36:45.869Z,325.87
2018-10-12T17:39:14.565Z,195.83
2018-10-12T17:41:43.166Z,67.93
2018-10-12T17:44:11.743Z,26.23
2018-10-12T17:46:40.316Z,73.07
2018-10-12T17:49:08.928Z,42.67
2018-10-12T17:51:37.792Z,197.53
2018-10-12T17:54:06.496Z,256.63
2018-10-12T17:56:35.054Z,62.67
2018-10-12T17:59:04.260Z,24.83
2018-10-12T18:01:32.925Z,13.47
2018-10-12T18:04:01.531Z,12.23
2018-10-12T18:06:30.205Z,28.50
2018-10-12T18:08:58.844Z,64.13
2018-10-12T18:11:27.398Z,68.33
2018-10-12T18:13:56.022Z,60.77
2018-10-12T18:16:26.498Z,59.97
2018-10-12T18:18:55.101Z,44.10
2018-10-12T18:21:23.634Z,62.40
2018-10-12T18:23:52.226Z,58.57
2018-10-12T18:26:20.755Z,52.87
2018-10-12T18:28:49.718Z,23.33
2018-10-12T18:31:19.044Z,35.47
2018-10-12T18:33:47.615Z,88.10
2018-10-12T18:36:16.232Z,57.53
2018-10-12T18:38:44.847Z,38.47
2018-10-12T18:41:13.473Z,47.97
2018-10-12T18:43:42.091Z,42.30
2018-10-12T18:46:11.493Z,76.87
2018-10-12T18:48:40.132Z,112.37
2018-10-12T18:51:08.797Z,134.13
2018-10-12T18:53:37.370Z,117.03
2018-10-12T18:56:05.948Z,40.97
2018-10-12T18:58:34.552Z,12.70
2018-10-12T19:01:03.326Z,10.03
2018-10-12T19:03:31.877Z,13.90
2018-10-12T19:06:00.451Z,17.67
2018-10-12T19:08:29.037Z,13.37
2018-10-12T19:10:57.632Z,11.30
2018-10-12T19:13:26.239Z,8.30
2018-10-12T19:15:54.802Z,6.73
2018-10-12T19:18:24.114Z,10.00
2018-10-12T19:20:52.928Z,12.57
2018-10-12T19:23:21.526Z,11.83
2018-10-12T19:25:50.067Z,8.90
2018-10-12T19:28:18.684Z,7.50
2018-10-12T19:30:47.269Z,9.10
2018-10-12T19:33:15.837Z,13.60
2018-10-12T19:35:44.419Z,23.30
2018-10-12T19:38:13.008Z,22.40
2018-10-12T19:40:42.287Z,18.40
2018-10-12T19:43:10.888Z,15.50
2018-10-12T19:45:39.700Z,13.40
2018-10-12T19:48:08.437Z,18.53
2018-10-12T19:50:37.016Z,15.23
2018-10-12T19:53:05.626Z,12.17
2018-10-12T19:55:34.379Z,14.30
2018-10-12T19:58:02.918Z,11.80
2018-10-12T20:00:31.533Z,7.60
2018-10-12T20:03:00.083Z,6.50
2018-10-12T20:05:28.731Z,6.93
2018-10-12T20:07:57.354Z,7.67
2018-10-12T20:10:26.261Z,8.90
2018-10-12T20:12:54.774Z,9.57
2018-10-12T20:15:23.665Z,8.97
2018-10-12T20:17:52.715Z,9.40
2018-10-12T20:20:22.024Z,8.83
2018-10-12T20:22:50.838Z,8.30
2018-10-12T20:25:19.549Z,8.87
2018-10-12T20:27:48.091Z,8.50
2018-10-12T20:30:16.662Z,8.97
2018-10-12T20:32:45.346Z,8.90
2018-10-12T20:35:13.990Z,8.23
2018-10-12T20:37:42.552Z,8.17
2018-10-12T20:40:13.773Z,8.43
2018-10-12T20:42:43.097Z,7.97
2018-10-12T20:45:11.682Z,8.00
2018-10-12T20:47:40.351Z,8.13
2018-10-12T20:50:09.941Z,8.50
2018-10-12T20:52:38.502Z,8.57
2018-10-12T20:55:07.465Z,8.77
2018-10-12T20:57:40.251Z,8.47
2018-10-12T21:00:08.876Z,9.07
2018-10-12T21:02:37.428Z,8.63
2018-10-12T21:05:07.256Z,9.27
2018-10-12T21:07:35.931Z,9.27
2018-10-12T21:10:04.521Z,9.27
2018-10-12T21:12:33.123Z,8.57
2018-10-12T21:15:01.740Z,8.33
2018-10-12T21:17:30.329Z,8.40
2018-10-12T21:19:59.223Z,9.17
2018-10-12T21:22:27.834Z,9.43
2018-10-12T21:24:56.411Z,9.53
2018-10-12T21:27:25.223Z,10.17
2018-10-12T21:29:53.757Z,8.53
2018-10-12T21:32:22.865Z,11.73
2018-10-12T21:34:51.408Z,8.27
2018-10-12T21:37:19.972Z,9.97
2018-10-12T21:39:48.524Z,10.87
2018-10-12T21:42:17.084Z,11.07
2018-10-12T21:44:45.635Z,8.53
2018-10-12T21:47:14.221Z,8.93
2018-10-12T21:49:42.781Z,6.87
2018-10-12T21:52:11.396Z,6.80
2018-10-12T21:54:40.071Z,7.30
2018-10-12T21:57:08.660Z,7.30
2018-10-12T21:59:37.239Z,6.53
2018-10-12T22:02:05.807Z,7.10
2018-10-12T22:04:34.323Z,8.00
2018-10-12T22:07:02.962Z,8.63
2018-10-12T22:09:31.506Z,7.53
2018-10-12T22:12:00.077Z,6.43
2018-10-12T22:14:28.661Z,5.80
2018-10-12T22:16:57.233Z,6.07
2018-10-12T22:19:25.764Z,6.20
2018-10-12T22:21:54.323Z,5.93
2018-10-12T22:24:22.880Z,6.00
2018-10-12T22:26:51.445Z,5.70
2018-10-12T22:29:19.971Z,6.03
2018-10-12T22:31:48.568Z,5.47
2018-10-12T22:34:17.161Z,5.43
2018-10-12T22:36:45.733Z,6.27
2018-10-12T22:39:14.283Z,6.67
2018-10-12T22:41:42.838Z,6.10
2018-10-12T22:44:11.386Z,6.37
2018-10-12T22:46:39.913Z,6.27
2018-10-12T22:49:08.487Z,6.57
2018-10-12T22:51:37.045Z,6.70
2018-10-12T22:54:05.592Z,7.50
2018-10-12T22:56:34.129Z,7.37
2018-10-12T22:59:02.761Z,7.07
2018-10-12T23:01:31.361Z,7.60
2018-10-12T23:04:00.004Z,7.63
2018-10-12T23:06:28.672Z,7.87
2018-10-12T23:08:57.388Z,8.20
2018-10-12T23:11:25.910Z,8.03
2018-10-12T23:13:54.452Z,7.80
2018-10-12T23:16:23.012Z,8.17
2018-10-12T23:18:51.537Z,7.37
2018-10-12T23:21:20.098Z,7.70
2018-10-12T23:23:48.634Z,13.10
2018-10-12T23:26:17.200Z,9.83
2018-10-12T23:28:45.762Z,14.47
2018-10-12T23:31:14.304Z,8.47
2018-10-12T23:33:54.265Z,8.20
2018-10-12T23:36:22.812Z,8.40
2018-10-12T23:38:51.374Z,8.90
2018-10-12T23:41:19.912Z,9.20
2018-10-12T23:43:50.534Z,8.43
2018-10-12T23:46:19.208Z,9.63
2018-10-12T23:48:47.841Z,8.77
2018-10-12T23:51:16.431Z,8.93
2018-10-12T23:53:44.990Z,9.17
2018-10-12T23:56:13.564Z,9.13
2018-10-12T23:58:42.480Z,8.80
